createdAt,value
2018-06-03T00:00:38.610Z,0.00
2018-06-03T00:01:38.535Z,0.00
2018-06-03T00:02:38.473Z,0.00
2018-06-03T00:03:38.385Z,0.00
2018-06-03T00:04:38.310Z,0.00
2018-06-03T00:05:38.236Z,0.00
2018-06-03T00:06:38.162Z,0.00
2018-06-03T00:07:38.074Z,0.00
2018-06-03T00:08:38.003Z,0.00
2018-06-03T00:09:38.225Z,0.00
2018-06-03T00:10:37.853Z,0.00
2018-06-03T00:11:37.776Z,0.00
2018-06-03T00:12:37.711Z,0.00
2018-06-03T00:13:37.625Z,0.00
2018-06-03T00:14:37.538Z,0.00
2018-06-03T00:15:37.475Z,0.00
2018-06-03T00:16:37.387Z,0.00
2018-06-03T00:17:37.311Z,0.00
2018-06-03T00:18:37.240Z,0.00
2018-06-03T00:19:37.176Z,0.00
2018-06-03T00:20:37.088Z,0.00
2018-06-03T00:21:37.013Z,0.00
2018-06-03T00:22:36.938Z,0.00
2018-06-03T00:23:36.853Z,0.00
2018-06-03T00:24:37.029Z,0.00
2018-06-03T00:25:36.707Z,0.00
2018-06-03T00:26:36.631Z,0.00
2018-06-03T00:27:36.553Z,0.00
2018-06-03T00:28:36.477Z,0.00
2018-06-03T00:29:36.403Z,0.00
2018-06-03T00:30:36.314Z,0.00
2018-06-03T00:31:36.239Z,0.00
2018-06-03T00:32:36.164Z,0.00
2018-06-03T00:33:36.089Z,0.00
2018-06-03T00:34:36.028Z,0.00
2018-06-03T00:35:35.939Z,0.00
2018-06-03T00:36:35.865Z,0.00
2018-06-03T00:37:35.789Z,0.00
2018-06-03T00:38:35.707Z,0.00
2018-06-03T00:39:35.631Z,0.00
2018-06-03T00:40:35.553Z,0.00
2018-06-03T00:41:35.478Z,0.00
2018-06-03T00:42:35.407Z,0.00
2018-06-03T00:43:35.328Z,0.00
2018-06-03T00:44:35.242Z,0.00
2018-06-03T00:45:35.166Z,0.00
2018-06-03T00:46:35.095Z,0.00
2018-06-03T00:47:35.017Z,0.00
2018-06-03T00:48:34.946Z,0.00
2018-06-03T00:49:34.866Z,0.00
2018-06-03T00:50:34.791Z,0.00
2018-06-03T00:51:34.716Z,0.00
2018-06-03T00:52:34.629Z,0.00
2018-06-03T00:53:34.554Z,0.00
2018-06-03T00:54:34.481Z,0.00
2018-06-03T00:55:34.404Z,0.00
2018-06-03T00:56:34.334Z,0.00
2018-06-03T00:57:34.255Z,0.00
2018-06-03T00:58:34.180Z,0.00
2018-06-03T00:59:34.105Z,0.00
2018-06-03T01:00:34.019Z,0.00
2018-06-03T01:01:33.943Z,0.00
2018-06-03T01:02:33.868Z,0.00
2018-06-03T01:03:33.792Z,0.00
2018-06-03T01:04:33.719Z,0.00
2018-06-03T01:05:33.643Z,0.00
2018-06-03T01:06:33.569Z,0.00
2018-06-03T01:07:33.482Z,0.00
2018-06-03T01:08:33.406Z,0.00
2018-06-03T01:09:33.331Z,0.00
2018-06-03T01:10:33.255Z,0.00
2018-06-03T01:11:33.188Z,0.00
2018-06-03T01:12:33.108Z,0.00
2018-06-03T01:13:33.032Z,0.00
2018-06-03T01:14:32.944Z,0.00
2018-06-03T01:15:32.868Z,0.00
2018-06-03T01:16:32.793Z,0.00
2018-06-03T01:17:32.718Z,0.00
2018-06-03T01:18:32.643Z,0.00
2018-06-03T01:19:32.581Z,0.00
2018-06-03T01:20:32.493Z,0.00
2018-06-03T01:21:32.416Z,0.00
2018-06-03T01:22:32.332Z,0.00
2018-06-03T01:23:32.259Z,0.00
2018-06-03T01:24:32.187Z,0.00
2018-06-03T01:25:32.109Z,0.00
2018-06-03T01:26:32.034Z,0.00
2018-06-03T01:27:31.960Z,0.00
2018-06-03T01:28:31.871Z,0.00
2018-06-03T01:29:31.795Z,0.00
2018-06-03T01:30:31.719Z,0.00
2018-06-03T01:31:31.645Z,0.00
2018-06-03T01:32:31.570Z,0.00
2018-06-03T01:33:31.508Z,0.00
2018-06-03T01:34:31.420Z,0.00
2018-06-03T01:35:31.345Z,0.00
2018-06-03T01:36:31.270Z,0.00
2018-06-03T01:37:31.184Z,0.00
2018-06-03T01:38:31.110Z,0.00
2018-06-03T01:39:31.034Z,0.00
2018-06-03T01:40:30.959Z,0.00
2018-06-03T01:41:30.885Z,0.00
2018-06-03T01:42:30.810Z,0.00
2018-06-03T01:43:30.737Z,0.00
2018-06-03T01:44:30.646Z,0.00
2018-06-03T01:45:30.572Z,0.00
2018-06-03T01:46:30.498Z,0.00
2018-06-03T01:47:30.422Z,0.00
2018-06-03T01:48:30.360Z,0.00
2018-06-03T01:49:30.272Z,0.00
2018-06-03T01:50:30.197Z,0.00
2018-06-03T01:51:30.111Z,0.00
2018-06-03T01:52:30.036Z,0.00
2018-06-03T01:53:29.961Z,0.00
2018-06-03T01:54:29.886Z,0.00
2018-06-03T01:55:29.818Z,0.00
2018-06-03T01:56:29.740Z,0.00
2018-06-03T01:57:29.662Z,0.00
2018-06-03T01:58:29.576Z,0.00
2018-06-03T01:59:29.499Z,0.00
2018-06-03T02:00:29.429Z,0.00
2018-06-03T02:01:29.350Z,0.00
2018-06-03T02:02:29.274Z,0.00
2018-06-03T02:03:29.199Z,0.00
2018-06-03T02:04:29.125Z,0.00
2018-06-03T02:05:29.050Z,0.00
2018-06-03T02:06:28.963Z,0.00
2018-06-03T02:07:28.891Z,0.00
2018-06-03T02:08:28.812Z,0.00
2018-06-03T02:09:28.737Z,0.00
2018-06-03T02:10:28.663Z,0.00
2018-06-03T02:11:28.589Z,0.00
2018-06-03T02:12:28.513Z,0.00
2018-06-03T02:13:28.442Z,0.00
2018-06-03T02:14:28.351Z,0.00
2018-06-03T02:15:28.275Z,0.00
2018-06-03T02:16:28.200Z,0.00
2018-06-03T02:17:28.169Z,0.00
2018-06-03T02:18:28.052Z,0.00
2018-06-03T02:19:27.975Z,0.00
2018-06-03T02:20:27.901Z,0.00
2018-06-03T02:21:27.815Z,0.00
2018-06-03T02:22:27.740Z,4.00
2018-06-03T02:23:27.666Z,4.00
2018-06-03T02:24:27.591Z,0.00
2018-06-03T02:25:27.518Z,0.00
2018-06-03T02:26:27.440Z,4.00
2018-06-03T02:27:27.365Z,4.00
2018-06-03T02:28:27.290Z,0.00
2018-06-03T02:29:27.203Z,4.00
2018-06-03T02:30:27.127Z,4.00
2018-06-03T02:31:27.052Z,4.00
2018-06-03T02:32:26.977Z,4.00
2018-06-03T02:33:26.903Z,8.00
2018-06-03T02:34:26.832Z,4.00
2018-06-03T02:35:26.752Z,8.00
2018-06-03T02:36:26.691Z,8.00
2018-06-03T02:37:26.591Z,8.00
2018-06-03T02:38:26.517Z,8.00
2018-06-03T02:39:26.453Z,12.00
2018-06-03T02:40:26.366Z,12.00
2018-06-03T02:41:26.291Z,12.00
2018-06-03T02:42:26.217Z,16.00
2018-06-03T02:43:26.141Z,16.00
2018-06-03T02:44:26.055Z,16.00
2018-06-03T02:45:25.981Z,20.00
2018-06-03T02:46:25.907Z,16.00
2018-06-03T02:47:25.829Z,20.00
2018-06-03T02:48:25.754Z,20.00
2018-06-03T02:49:25.688Z,24.00
2018-06-03T02:50:25.605Z,28.00
2018-06-03T02:51:25.529Z,32.00
2018-06-03T02:52:25.443Z,36.00
2018-06-03T02:53:25.372Z,40.00
2018-06-03T02:54:25.292Z,44.00
2018-06-03T02:55:25.217Z,48.00
2018-06-03T02:56:25.143Z,56.00
2018-06-03T02:57:25.071Z,60.00
2018-06-03T02:58:24.993Z,64.00
2018-06-03T02:59:24.906Z,72.00
2018-06-03T03:00:24.829Z,72.00
2018-06-03T03:01:24.756Z,72.00
2018-06-03T03:02:24.680Z,76.00
2018-06-03T03:03:24.610Z,80.00
2018-06-03T03:04:24.530Z,80.00
2018-06-03T03:05:24.457Z,76.00
2018-06-03T03:06:24.380Z,84.00
2018-06-03T03:07:24.292Z,88.00
2018-06-03T03:08:24.230Z,96.00
2018-06-03T03:09:24.144Z,104.00
2018-06-03T03:10:24.069Z,112.00
2018-06-03T03:11:23.994Z,132.00
2018-06-03T03:12:23.920Z,144.00
2018-06-03T03:13:23.845Z,160.00
2018-06-03T03:14:23.756Z,176.00
2018-06-03T03:15:23.683Z,208.00
2018-06-03T03:16:23.606Z,236.00
2018-06-03T03:17:23.532Z,252.00
2018-06-03T03:18:23.456Z,284.00
2018-06-03T03:19:23.381Z,328.00
2018-06-03T03:20:23.306Z,348.00
2018-06-03T03:21:23.220Z,372.00
2018-06-03T03:22:23.145Z,416.00
2018-06-03T03:23:23.070Z,428.00
2018-06-03T03:24:22.999Z,476.00
2018-06-03T03:25:22.920Z,496.00
2018-06-03T03:26:22.851Z,548.00
2018-06-03T03:27:22.770Z,572.00
2018-06-03T03:28:22.684Z,580.00
2018-06-03T03:29:22.621Z,552.00
2018-06-03T03:30:22.533Z,532.00
2018-06-03T03:31:22.464Z,504.00
2018-06-03T03:32:22.382Z,468.00
2018-06-03T03:33:22.309Z,460.00
2018-06-03T03:34:22.233Z,440.00
2018-06-03T03:35:22.158Z,448.00
2018-06-03T03:36:22.072Z,420.00
2018-06-03T03:37:21.998Z,404.00
2018-06-03T03:38:21.922Z,400.00
2018-06-03T03:39:21.847Z,404.00
2018-06-03T03:40:21.772Z,400.00
2018-06-03T03:41:21.698Z,372.00
2018-06-03T03:42:21.623Z,364.00
2018-06-03T03:43:21.547Z,360.00
2018-06-03T03:44:21.459Z,356.00
2018-06-03T03:45:21.385Z,376.00
2018-06-03T03:46:21.314Z,412.00
2018-06-03T03:47:21.236Z,440.00
2018-06-03T03:48:21.160Z,484.00
2018-06-03T03:49:21.085Z,496.00
2018-06-03T03:50:20.999Z,516.00
2018-06-03T03:51:20.925Z,536.00
2018-06-03T03:52:20.849Z,540.00
2018-06-03T03:53:20.775Z,540.00
2018-06-03T03:54:20.699Z,556.00
2018-06-03T03:55:20.627Z,564.00
2018-06-03T03:56:20.549Z,560.00
2018-06-03T03:57:20.463Z,532.00
2018-06-03T03:58:20.399Z,540.00
2018-06-03T03:59:20.310Z,552.00
2018-06-03T04:00:20.236Z,580.00
2018-06-03T04:01:20.161Z,612.00
2018-06-03T04:02:20.086Z,568.00
2018-06-03T04:03:20.011Z,592.00
2018-06-03T04:04:19.939Z,628.00
2018-06-03T04:05:19.849Z,644.00
2018-06-03T04:06:19.775Z,656.00
2018-06-03T04:07:19.703Z,648.00
2018-06-03T04:08:19.625Z,656.00
2018-06-03T04:09:19.550Z,696.00
2018-06-03T04:10:19.474Z,680.00
2018-06-03T04:11:19.389Z,656.00
2018-06-03T04:12:19.312Z,708.00
2018-06-03T04:13:19.299Z,676.00
2018-06-03T04:14:19.165Z,680.00
2018-06-03T04:15:19.088Z,632.00
2018-06-03T04:16:19.013Z,652.00
2018-06-03T04:17:18.937Z,596.00
2018-06-03T04:18:18.852Z,584.00
2018-06-03T04:19:18.776Z,624.00
2018-06-03T04:20:18.701Z,604.00
2018-06-03T04:21:18.627Z,552.00
2018-06-03T04:22:18.552Z,556.00
2018-06-03T04:23:18.480Z,600.00
2018-06-03T04:24:18.402Z,584.00
2018-06-03T04:25:18.318Z,608.00
2018-06-03T04:26:18.238Z,588.00
2018-06-03T04:27:18.164Z,572.00
2018-06-03T04:28:18.092Z,644.00
2018-06-03T04:29:18.014Z,576.00
2018-06-03T04:30:17.939Z,552.00
2018-06-03T04:31:17.864Z,548.00
2018-06-03T04:32:17.786Z,568.00
2018-06-03T04:33:17.702Z,616.00
2018-06-03T04:34:17.634Z,628.00
2018-06-03T04:35:17.552Z,636.00
2018-06-03T04:36:17.482Z,648.00
2018-06-03T04:37:17.405Z,672.00
2018-06-03T04:38:17.328Z,692.00
2018-06-03T04:39:17.240Z,740.00
2018-06-03T04:40:17.165Z,816.00
2018-06-03T04:41:17.127Z,992.00
2018-06-03T04:42:17.019Z,928.00
2018-06-03T04:43:16.945Z,960.00
2018-06-03T04:44:16.865Z,904.00
2018-06-03T04:45:16.780Z,940.00
2018-06-03T04:46:16.710Z,880.00
2018-06-03T04:47:16.629Z,876.00
2018-06-03T04:48:16.554Z,964.00
2018-06-03T04:49:16.479Z,888.00
2018-06-03T04:50:16.410Z,888.00
2018-06-03T04:51:16.330Z,884.00
2018-06-03T04:52:16.241Z,984.00
2018-06-03T04:53:16.183Z,952.00
2018-06-03T04:54:16.092Z,1024.00
2018-06-03T04:55:16.017Z,1168.00
2018-06-03T04:56:15.942Z,1156.00
2018-06-03T04:57:15.880Z,1272.00
2018-06-03T04:58:15.792Z,1240.00
2018-06-03T04:59:15.711Z,1296.00
2018-06-03T05:00:15.631Z,1336.00
2018-06-03T05:01:15.558Z,1348.00
2018-06-03T05:02:15.481Z,1364.00
2018-06-03T05:03:15.407Z,1280.00
2018-06-03T05:04:15.331Z,1436.00
2018-06-03T05:05:15.245Z,1296.00
2018-06-03T05:06:15.169Z,1104.00
2018-06-03T05:07:15.106Z,1452.00
2018-06-03T05:08:15.020Z,1364.00
2018-06-03T05:09:14.943Z,1156.00
2018-06-03T05:10:14.870Z,1220.00
2018-06-03T05:11:14.798Z,1228.00
2018-06-03T05:12:14.711Z,1388.00
2018-06-03T05:13:14.632Z,1296.00
2018-06-03T05:14:14.557Z,1320.00
2018-06-03T05:15:14.482Z,1340.00
2018-06-03T05:16:14.408Z,1368.00
2018-06-03T05:17:14.332Z,1292.00
2018-06-03T05:18:14.258Z,1420.00
2018-06-03T05:19:14.170Z,1392.00
2018-06-03T05:20:14.096Z,1280.00
2018-06-03T05:21:14.021Z,1372.00
2018-06-03T05:22:13.944Z,1512.00
2018-06-03T05:23:13.872Z,1648.00
2018-06-03T05:24:13.795Z,1692.00
2018-06-03T05:25:13.709Z,2056.00
2018-06-03T05:26:13.636Z,2140.00
2018-06-03T05:27:13.559Z,2188.00
2018-06-03T05:28:13.484Z,2184.00
2018-06-03T05:29:13.409Z,2132.00
2018-06-03T05:30:13.334Z,2084.00
2018-06-03T05:31:13.270Z,2364.00
2018-06-03T05:32:13.171Z,2316.00
2018-06-03T05:33:13.101Z,2256.00
2018-06-03T05:34:13.021Z,2768.00
2018-06-03T05:35:12.953Z,2620.00
2018-06-03T05:36:12.873Z,2476.00
2018-06-03T05:37:12.798Z,2392.00
2018-06-03T05:38:12.722Z,2440.00
2018-06-03T05:39:12.636Z,2340.00
2018-06-03T05:40:12.560Z,2020.00
2018-06-03T05:41:12.487Z,2296.00
2018-06-03T05:42:12.410Z,2224.00
2018-06-03T05:43:12.335Z,2196.00
2018-06-03T05:44:12.261Z,2172.00
2018-06-03T05:45:12.186Z,2220.00
2018-06-03T05:46:12.098Z,1868.00
2018-06-03T05:47:12.026Z,1888.00
2018-06-03T05:48:11.948Z,2072.00
2018-06-03T05:49:11.874Z,1920.00
2018-06-03T05:50:11.804Z,1836.00
2018-06-03T05:51:11.723Z,2052.00
2018-06-03T05:52:11.648Z,1952.00
2018-06-03T05:53:11.562Z,2072.00
2018-06-03T05:54:11.487Z,1776.00
2018-06-03T05:55:11.413Z,1684.00
2018-06-03T05:56:11.336Z,1804.00
2018-06-03T05:57:11.261Z,1836.00
2018-06-03T05:58:11.188Z,1700.00
2018-06-03T05:59:11.113Z,1672.00
2018-06-03T06:00:11.025Z,1780.00
2018-06-03T06:01:10.950Z,1736.00
2018-06-03T06:02:10.878Z,1648.00
2018-06-03T06:03:10.802Z,1740.00
2018-06-03T06:04:10.725Z,1832.00
2018-06-03T06:05:10.650Z,1900.00
2018-06-03T06:06:10.575Z,1940.00
2018-06-03T06:07:10.499Z,2044.00
2018-06-03T06:08:10.416Z,1952.00
2018-06-03T06:09:10.338Z,1960.00
2018-06-03T06:10:10.267Z,1912.00
2018-06-03T06:11:10.189Z,1948.00
2018-06-03T06:12:10.114Z,2044.00
2018-06-03T06:13:10.039Z,2104.00
2018-06-03T06:14:09.952Z,2192.00
2018-06-03T06:15:09.878Z,2504.00
2018-06-03T06:16:09.800Z,2264.00
2018-06-03T06:17:09.733Z,2196.00
2018-06-03T06:18:09.651Z,2492.00
2018-06-03T06:19:09.576Z,2372.00
2018-06-03T06:20:09.525Z,2296.00
2018-06-03T06:21:09.426Z,2212.00
2018-06-03T06:22:09.340Z,2056.00
2018-06-03T06:23:09.265Z,2188.00
2018-06-03T06:24:09.192Z,2264.00
2018-06-03T06:25:09.116Z,2384.00
2018-06-03T06:26:09.041Z,2324.00
2018-06-03T06:27:08.966Z,2176.00
2018-06-03T06:28:08.878Z,2072.00
2018-06-03T06:29:08.820Z,2196.00
2018-06-03T06:30:08.724Z,2292.00
2018-06-03T06:31:08.648Z,2352.00
2018-06-03T06:32:08.576Z,2204.00
2018-06-03T06:33:08.499Z,2368.00
2018-06-03T06:34:08.425Z,2120.00
2018-06-03T06:35:08.349Z,2232.00
2018-06-03T06:36:08.264Z,2384.00
2018-06-03T06:37:08.190Z,2048.00
2018-06-03T06:38:08.114Z,2056.00
2018-06-03T06:39:08.042Z,2380.00
2018-06-03T06:40:07.967Z,2364.00
2018-06-03T06:41:07.890Z,2372.00
2018-06-03T06:42:07.816Z,2252.00
2018-06-03T06:43:07.740Z,2764.00
2018-06-03T06:44:07.653Z,2636.00
2018-06-03T06:45:07.578Z,3204.00
2018-06-03T06:46:07.503Z,3428.00
2018-06-03T06:47:07.430Z,3124.00
2018-06-03T06:48:07.354Z,2888.00
2018-06-03T06:49:07.280Z,2492.00
2018-06-03T06:50:07.271Z,2364.00
2018-06-03T06:51:07.130Z,2444.00
2018-06-03T06:52:07.044Z,2724.00
2018-06-03T06:53:06.969Z,2388.00
2018-06-03T06:54:06.895Z,2144.00
2018-06-03T06:55:06.820Z,1864.00
2018-06-03T06:56:06.745Z,2000.00
2018-06-03T06:57:06.670Z,2052.00
2018-06-03T06:58:06.596Z,2212.00
2018-06-03T06:59:06.520Z,2280.00
2018-06-03T07:00:06.443Z,2448.00
2018-06-03T07:01:06.358Z,2064.00
2018-06-03T07:02:06.284Z,2028.00
2018-06-03T07:03:06.208Z,2336.00
2018-06-03T07:04:06.136Z,2856.00
2018-06-03T07:05:06.060Z,2524.00
2018-06-03T07:06:05.987Z,2908.00
2018-06-03T07:07:05.899Z,2616.00
2018-06-03T07:08:05.823Z,2388.00
2018-06-03T07:09:05.749Z,2220.00
2018-06-03T07:10:05.674Z,2676.00
2018-06-03T07:11:05.606Z,2800.00
2018-06-03T07:12:05.524Z,2632.00
2018-06-03T07:13:05.464Z,2724.00
2018-06-03T07:14:05.375Z,2712.00
2018-06-03T07:15:05.287Z,2784.00
2018-06-03T07:16:05.215Z,3040.00
2018-06-03T07:17:05.153Z,2920.00
2018-06-03T07:18:05.065Z,2804.00
2018-06-03T07:19:04.988Z,2732.00
2018-06-03T07:20:04.912Z,2620.00
2018-06-03T07:21:04.857Z,2740.00
2018-06-03T07:22:04.754Z,3692.00
2018-06-03T07:23:04.682Z,3416.00
2018-06-03T07:24:04.603Z,3312.00
2018-06-03T07:25:04.529Z,3464.00
2018-06-03T07:26:04.453Z,3556.00
2018-06-03T07:27:04.384Z,3972.00
2018-06-03T07:28:04.304Z,3476.00
2018-06-03T07:29:04.229Z,3296.00
2018-06-03T07:30:04.155Z,2860.00
2018-06-03T07:31:04.066Z,2912.00
2018-06-03T07:32:04.067Z,3552.00
2018-06-03T07:33:03.917Z,3456.00
2018-06-03T07:34:03.855Z,3988.00
2018-06-03T07:35:03.771Z,4264.00
2018-06-03T07:36:03.694Z,4536.00
2018-06-03T07:37:03.618Z,3488.00
2018-06-03T07:38:03.532Z,3448.00
2018-06-03T07:39:03.457Z,3160.00
2018-06-03T07:40:03.388Z,3492.00
2018-06-03T07:41:03.308Z,3988.00
2018-06-03T07:42:03.234Z,3184.00
2018-06-03T07:43:03.158Z,2792.00
2018-06-03T07:44:03.082Z,2580.00
2018-06-03T07:45:03.008Z,2408.00
2018-06-03T07:46:02.921Z,2440.00
2018-06-03T07:47:02.846Z,3012.00
2018-06-03T07:48:02.770Z,2468.00
2018-06-03T07:49:02.699Z,2464.00
2018-06-03T07:50:02.621Z,2764.00
2018-06-03T07:51:02.552Z,2644.00
2018-06-03T07:52:02.471Z,2572.00
2018-06-03T07:53:02.398Z,2184.00
2018-06-03T07:54:02.321Z,2368.00
2018-06-03T07:55:02.235Z,2256.00
2018-06-03T07:56:02.159Z,2172.00
2018-06-03T07:57:02.083Z,2392.00
2018-06-03T07:58:02.011Z,2760.00
2018-06-03T07:59:01.931Z,2788.00
2018-06-03T08:00:01.857Z,3048.00
2018-06-03T08:01:01.782Z,2912.00
2018-06-03T08:02:01.695Z,2700.00
2018-06-03T08:03:01.619Z,2720.00
2018-06-03T08:04:01.546Z,2664.00
2018-06-03T08:05:01.469Z,2652.00
2018-06-03T08:06:01.403Z,2360.00
2018-06-03T08:07:01.319Z,2384.00
2018-06-03T08:08:01.256Z,2760.00
2018-06-03T08:09:01.169Z,2716.00
2018-06-03T08:10:01.083Z,2272.00
2018-06-03T08:11:01.008Z,2504.00
2018-06-03T08:12:00.933Z,2360.00
2018-06-03T08:13:00.857Z,2436.00
2018-06-03T08:14:00.785Z,2500.00
2018-06-03T08:15:00.707Z,3028.00
2018-06-03T08:16:00.634Z,3204.00
2018-06-03T08:17:00.545Z,2996.00
2018-06-03T08:18:00.473Z,3000.00
2018-06-03T08:19:00.394Z,3240.00
2018-06-03T08:20:00.319Z,2956.00
2018-06-03T08:21:00.245Z,2872.00
2018-06-03T08:22:00.183Z,3020.00
2018-06-03T08:23:00.097Z,3032.00
2018-06-03T08:24:00.019Z,3404.00
2018-06-03T08:24:59.933Z,2872.00
2018-06-03T08:25:59.863Z,3100.00
2018-06-03T08:26:59.784Z,2948.00
2018-06-03T08:27:59.709Z,2936.00
2018-06-03T08:28:59.638Z,2988.00
2018-06-03T08:29:59.557Z,3436.00
2018-06-03T08:30:59.483Z,3404.00
2018-06-03T08:31:59.394Z,3308.00
2018-06-03T08:32:59.332Z,3260.00
2018-06-03T08:33:59.244Z,3256.00
2018-06-03T08:34:59.168Z,3244.00
2018-06-03T08:35:59.097Z,3588.00
2018-06-03T08:36:59.024Z,3932.00
2018-06-03T08:37:58.934Z,4028.00
2018-06-03T08:38:58.858Z,4252.00
2018-06-03T08:39:58.781Z,6372.00
2018-06-03T08:40:58.707Z,5176.00
2018-06-03T08:41:58.632Z,4672.00
2018-06-03T08:42:58.562Z,3440.00
2018-06-03T08:43:58.482Z,3948.00
2018-06-03T08:44:58.396Z,4492.00
2018-06-03T08:45:58.320Z,3972.00
2018-06-03T08:46:58.244Z,3520.00
2018-06-03T08:47:58.169Z,4612.00
2018-06-03T08:48:58.095Z,4320.00
2018-06-03T08:49:58.019Z,3968.00
2018-06-03T08:50:57.945Z,3956.00
2018-06-03T08:51:57.869Z,3752.00
2018-06-03T08:52:57.783Z,4536.00
2018-06-03T08:53:57.708Z,3488.00
2018-06-03T08:54:57.634Z,3060.00
2018-06-03T08:55:57.558Z,2544.00
2018-06-03T08:56:57.483Z,2116.00
2018-06-03T08:57:57.407Z,2692.00
2018-06-03T08:58:57.334Z,3524.00
2018-06-03T08:59:57.258Z,3704.00
2018-06-03T09:00:57.179Z,3968.00
2018-06-03T09:01:57.096Z,4180.00
2018-06-03T09:02:57.020Z,4284.00
2018-06-03T09:03:56.958Z,6576.00
2018-06-03T09:04:56.870Z,8832.00
2018-06-03T09:05:56.796Z,9012.00
2018-06-03T09:06:56.745Z,7692.00
2018-06-03T09:07:56.647Z,5408.00
2018-06-03T09:08:56.570Z,4568.00
2018-06-03T09:09:56.495Z,4456.00
2018-06-03T09:10:56.409Z,4012.00
2018-06-03T09:11:56.335Z,4196.00
2018-06-03T09:12:56.259Z,4236.00
2018-06-03T09:13:56.186Z,4364.00
2018-06-03T09:14:56.108Z,4496.00
2018-06-03T09:15:56.041Z,4408.00
2018-06-03T09:16:55.959Z,4560.00
2018-06-03T09:17:55.887Z,4268.00
2018-06-03T09:18:55.809Z,4684.00
2018-06-03T09:19:55.735Z,5892.00
2018-06-03T09:20:55.648Z,6456.00
2018-06-03T09:21:55.573Z,5792.00
2018-06-03T09:22:55.497Z,5808.00
2018-06-03T09:23:55.424Z,6048.00
2018-06-03T09:24:55.347Z,6800.00
2018-06-03T09:25:55.272Z,5484.00
2018-06-03T09:26:55.198Z,6012.00
2018-06-03T09:27:55.122Z,5756.00
2018-06-03T09:28:55.050Z,4612.00
2018-06-03T09:29:54.974Z,3968.00
2018-06-03T09:30:54.917Z,3692.00
2018-06-03T09:31:54.836Z,3832.00
2018-06-03T09:32:54.736Z,4904.00
2018-06-03T09:33:54.662Z,3880.00
2018-06-03T09:34:54.598Z,4072.00
2018-06-03T09:35:54.561Z,4272.00
2018-06-03T09:36:54.437Z,4460.00
2018-06-03T09:37:54.361Z,4864.00
2018-06-03T09:38:54.290Z,4844.00
2018-06-03T09:39:54.212Z,5664.00
2018-06-03T09:40:54.136Z,6248.00
2018-06-03T09:41:54.063Z,6428.00
2018-06-03T09:42:53.987Z,6876.00
2018-06-03T09:43:53.901Z,5720.00
2018-06-03T09:44:53.829Z,5596.00
2018-06-03T09:45:53.749Z,4756.00
2018-06-03T09:46:53.688Z,5712.00
2018-06-03T09:47:53.599Z,5064.00
2018-06-03T09:48:53.524Z,5528.00
2018-06-03T09:49:53.449Z,5584.00
2018-06-03T09:50:53.391Z,5668.00
2018-06-03T09:51:53.300Z,5016.00
2018-06-03T09:52:53.225Z,5232.00
2018-06-03T09:53:53.154Z,5900.00
2018-06-03T09:54:53.077Z,6224.00
2018-06-03T09:55:53.001Z,6516.00
2018-06-03T09:56:52.929Z,8276.00
2018-06-03T09:57:52.851Z,9984.00
2018-06-03T09:58:52.764Z,9388.00
2018-06-03T09:59:52.688Z,10776.00
2018-06-03T10:00:52.614Z,10724.00
2018-06-03T10:01:52.538Z,11644.00
2018-06-03T10:02:52.464Z,13900.00
2018-06-03T10:03:52.389Z,15284.00
2018-06-03T10:04:52.315Z,15868.00
2018-06-03T10:05:52.240Z,14472.00
2018-06-03T10:06:52.164Z,11464.00
2018-06-03T10:07:52.090Z,7656.00
2018-06-03T10:08:52.015Z,10784.00
2018-06-03T10:09:51.942Z,10212.00
2018-06-03T10:10:51.865Z,9972.00
2018-06-03T10:11:51.790Z,8572.00
2018-06-03T10:12:51.719Z,10804.00
2018-06-03T10:13:51.640Z,10824.00
2018-06-03T10:14:51.566Z,11436.00
2018-06-03T10:15:51.492Z,10296.00
2018-06-03T10:16:51.415Z,8312.00
2018-06-03T10:17:51.342Z,8544.00
2018-06-03T10:18:51.267Z,10336.00
2018-06-03T10:19:51.198Z,9396.00
2018-06-03T10:20:51.118Z,7984.00
2018-06-03T10:21:51.044Z,7452.00
2018-06-03T10:22:50.967Z,5932.00
2018-06-03T10:23:50.892Z,6532.00
2018-06-03T10:24:50.818Z,8236.00
2018-06-03T10:25:50.742Z,6416.00
2018-06-03T10:26:50.678Z,6056.00
2018-06-03T10:27:50.592Z,5280.00
2018-06-03T10:28:50.517Z,5580.00
2018-06-03T10:29:50.443Z,5956.00
2018-06-03T10:30:50.368Z,5948.00
2018-06-03T10:31:50.293Z,6704.00
2018-06-03T10:32:50.218Z,7412.00
2018-06-03T10:33:50.142Z,7288.00
2018-06-03T10:34:50.069Z,7688.00
2018-06-03T10:35:49.995Z,8276.00
2018-06-03T10:36:49.918Z,8996.00
2018-06-03T10:37:49.843Z,9152.00
2018-06-03T10:38:49.768Z,6364.00
2018-06-03T10:39:49.697Z,5084.00
2018-06-03T10:40:49.618Z,5044.00
2018-06-03T10:41:49.543Z,5304.00
2018-06-03T10:42:49.469Z,4980.00
2018-06-03T10:43:49.443Z,5656.00
2018-06-03T10:44:49.319Z,7928.00
2018-06-03T10:45:49.244Z,9620.00
2018-06-03T10:46:49.169Z,10936.00
2018-06-03T10:47:49.095Z,12964.00
2018-06-03T10:48:49.020Z,12412.00
2018-06-03T10:49:48.944Z,12580.00
2018-06-03T10:50:48.869Z,13896.00
2018-06-03T10:51:48.794Z,15120.00
2018-06-03T10:52:48.720Z,15276.00
2018-06-03T10:53:48.645Z,16620.00
2018-06-03T10:54:48.569Z,16836.00
2018-06-03T10:55:48.496Z,14024.00
2018-06-03T10:56:48.419Z,12676.00
2018-06-03T10:57:48.345Z,12908.00
2018-06-03T10:58:48.270Z,9956.00
2018-06-03T10:59:48.249Z,10552.00
2018-06-03T11:00:48.120Z,7948.00
2018-06-03T11:01:48.046Z,5764.00
2018-06-03T11:02:47.971Z,5356.00
2018-06-03T11:03:47.896Z,5052.00
2018-06-03T11:04:47.821Z,4636.00
2018-06-03T11:05:47.746Z,5280.00
2018-06-03T11:06:47.672Z,6304.00
2018-06-03T11:07:47.597Z,6156.00
2018-06-03T11:08:47.521Z,5856.00
2018-06-03T11:09:47.446Z,5084.00
2018-06-03T11:10:47.376Z,5604.00
2018-06-03T11:11:47.296Z,5880.00
2018-06-03T11:12:47.233Z,5032.00
2018-06-03T11:13:47.161Z,4420.00
2018-06-03T11:14:47.084Z,4784.00
2018-06-03T11:15:47.008Z,5588.00
2018-06-03T11:16:46.934Z,7696.00
2018-06-03T11:17:46.859Z,8840.00
2018-06-03T11:18:46.784Z,9828.00
2018-06-03T11:19:46.712Z,8876.00
2018-06-03T11:20:46.635Z,9476.00
2018-06-03T11:21:46.572Z,8432.00
2018-06-03T11:22:46.484Z,12996.00
2018-06-03T11:23:46.409Z,15272.00
2018-06-03T11:24:46.334Z,17340.00
2018-06-03T11:25:46.313Z,18240.00
2018-06-03T11:26:46.184Z,15724.00
2018-06-03T11:27:46.111Z,11236.00
2018-06-03T11:28:46.036Z,7892.00
2018-06-03T11:29:45.960Z,5524.00
2018-06-03T11:30:45.886Z,4092.00
2018-06-03T11:31:45.814Z,3752.00
2018-06-03T11:32:45.736Z,3984.00
2018-06-03T11:33:45.661Z,5248.00
2018-06-03T11:34:45.586Z,4880.00
2018-06-03T11:35:45.524Z,4208.00
2018-06-03T11:36:45.440Z,4088.00
2018-06-03T11:37:45.361Z,4368.00
2018-06-03T11:38:45.287Z,4696.00
2018-06-03T11:39:45.225Z,5120.00
2018-06-03T11:40:45.141Z,5332.00
2018-06-03T11:41:45.076Z,6180.00
2018-06-03T11:42:45.001Z,7052.00
2018-06-03T11:43:44.926Z,7080.00
2018-06-03T11:44:44.856Z,7832.00
2018-06-03T11:45:44.776Z,8784.00
2018-06-03T11:46:44.701Z,10260.00
2018-06-03T11:47:44.626Z,12700.00
2018-06-03T11:48:44.553Z,13644.00
2018-06-03T11:49:44.476Z,13340.00
2018-06-03T11:50:44.401Z,15568.00
2018-06-03T11:51:44.327Z,15384.00
2018-06-03T11:52:44.253Z,15100.00
2018-06-03T11:53:44.177Z,16408.00
2018-06-03T11:54:44.101Z,16972.00
2018-06-03T11:55:44.028Z,17664.00
2018-06-03T11:56:43.954Z,18976.00
2018-06-03T11:57:43.877Z,21888.00
2018-06-03T11:58:43.826Z,23200.00
2018-06-03T11:59:43.729Z,26112.00
2018-06-03T12:00:43.655Z,21536.00
2018-06-03T12:01:43.609Z,15308.00
2018-06-03T12:02:43.527Z,13556.00
2018-06-03T12:03:43.442Z,15148.00
2018-06-03T12:04:43.365Z,19520.00
2018-06-03T12:05:43.289Z,22432.00
2018-06-03T12:06:43.228Z,23744.00
2018-06-03T12:07:43.140Z,23616.00
2018-06-03T12:08:43.065Z,18144.00
2018-06-03T12:09:43.003Z,14284.00
2018-06-03T12:10:42.928Z,15588.00
2018-06-03T12:11:42.859Z,11188.00
2018-06-03T12:12:42.779Z,8264.00
2018-06-03T12:13:42.704Z,7692.00
2018-06-03T12:14:42.640Z,7144.00
2018-06-03T12:15:42.565Z,6200.00
2018-06-03T12:16:42.491Z,6228.00
2018-06-03T12:17:42.419Z,7004.00
2018-06-03T12:18:42.341Z,7900.00
2018-06-03T12:19:42.269Z,8540.00
2018-06-03T12:20:42.205Z,10500.00
2018-06-03T12:21:42.129Z,11900.00
2018-06-03T12:22:42.055Z,13164.00